Time;durP1;ratioP1;P1;durP2;ratioP2;P2;SDS_P1;SDS_P2;PMS_P1;PMS_P2;Temp;Humidity;BMP_temperature;BMP_pressure;BME280_temperature;BME280_humidity;BME280_pressure;Samples;Min_cycle;Max_cycle;Signal;HPM_P1;HPM_P2
2023/07/21 00:02:05;;;;;;;10.73;5.50;;;25.10;99.30;;;;;;5092558;28;20134;-55
2023/07/21 00:05:09;;;;;;;11.38;5.78;;;25.00;99.30;;;;;;5092751;28;20051;-58
2023/07/21 00:08:14;;;;;;;13.85;6.07;;;24.90;99.20;;;;;;5092580;28;20047;-57
2023/07/21 00:11:18;;;;;;;14.77;6.10;;;24.90;99.20;;;;;;5092675;28;20039;-54
2023/07/21 00:14:24;;;;;;;9.07;5.22;;;25.00;99.20;;;;;;5092072;28;20039;-53
2023/07/21 00:17:30;;;;;;;12.30;5.20;;;24.90;99.20;;;;;;5092023;28;20411;-54
2023/07/21 00:20:35;;;;;;;14.73;5.80;;;24.90;99.10;;;;;;5092276;28;20407;-60
2023/07/21 00:23:38;;;;;;;11.00;5.30;;;24.90;99.10;;;;;;5091808;28;20417;-60
2023/07/21 00:26:42;;;;;;;11.80;5.60;;;24.90;99.10;;;;;;5091776;28;20047;-53
2023/07/21 00:29:49;;;;;;;12.73;5.47;;;24.80;98.90;;;;;;5086484;28;20426;-54
2023/07/21 00:32:54;;;;;;;14.70;5.70;;;24.80;99.00;;;;;;5082867;28;20406;-53
2023/07/21 00:35:58;;;;;;;11.75;5.18;;;24.80;99.00;;;;;;5088750;28;20051;-57
2023/07/21 00:39:03;;;;;;;9.40;5.05;;;24.80;99.00;;;;;;5090461;28;20454;-59
2023/07/21 00:42:07;;;;;;;14.60;5.35;;;24.80;99.10;;;;;;5090255;28;20043;-55
2023/07/21 00:45:15;;;;;;;12.13;4.85;;;24.80;99.10;;;;;;5091470;28;20066;-54
2023/07/21 00:48:19;;;;;;;12.02;5.55;;;24.80;99.10;;;;;;5091230;28;20083;-54
2023/07/21 00:51:24;;;;;;;12.73;5.35;;;24.80;99.20;;;;;;5090997;28;20550;-53
2023/07/21 00:54:28;;;;;;;12.43;4.95;;;24.80;99.20;;;;;;5090571;28;20390;-55
2023/07/21 00:57:33;;;;;;;10.02;5.35;;;24.80;99.20;;;;;;5091121;28;20050;-57
2023/07/21 01:00:40;;;;;;;13.30;6.13;;;24.80;98.90;;;;;;5090404;28;20058;-57
2023/07/21 01:03:45;;;;;;;14.27;5.90;;;24.90;98.80;;;;;;5080030;28;20059;-54
2023/07/21 01:06:50;;;;;;;9.43;5.07;;;25.00;98.40;;;;;;5085734;28;20102;-54
2023/07/21 01:09:54;;;;;;;11.45;5.55;;;25.00;98.30;;;;;;5086991;28;20133;-55
2023/07/21 01:13:00;;;;;;;12.48;5.30;;;25.10;98.30;;;;;;5087477;28;20043;-54
2023/07/21 01:16:06;;;;;;;7.68;5.32;;;25.10;98.50;;;;;;5090235;28;20067;-53
2023/07/21 01:19:15;;;;;;;11.00;6.18;;;25.10;98.50;;;;;;5095417;28;20043;-54
2023/07/21 01:22:25;;;;;;;9.13;5.35;;;25.00;98.50;;;;;;5090677;28;20047;-55
2023/07/21 01:25:31;;;;;;;14.23;5.32;;;25.00;98.70;;;;;;5070906;28;20411;-54
2023/07/21 01:28:37;;;;;;;9.68;6.13;;;25.00;99.00;;;;;;5058147;28;20506;-54
2023/07/21 01:31:45;;;;;;;19.23;5.78;;;24.90;99.20;;;;;;5060345;28;20399;-57
2023/07/21 01:34:50;;;;;;;12.60;5.55;;;24.90;99.40;;;;;;5086236;28;20395;-57
2023/07/21 01:37:57;;;;;;;12.23;5.72;;;24.90;99.50;;;;;;5090446;28;20035;-57
2023/07/21 01:41:02;;;;;;;9.85;5.78;;;24.90;99.60;;;;;;5078162;28;20040;-58
2023/07/21 01:44:08;;;;;;;14.45;5.53;;;24.90;99.80;;;;;;5078363;28;20047;-54
2023/07/21 01:47:12;;;;;;;13.23;5.00;;;24.80;99.90;;;;;;5090511;28;20040;-55
2023/07/21 01:50:18;;;;;;;13.75;6.55;;;24.80;99.90;;;;;;5090373;28;20035;-54
2023/07/21 01:53:27;;;;;;;15.52;6.00;;;24.80;99.90;;;;;;5077979;28;20051;-56
2023/07/21 01:57:02;;;;;;;12.63;5.80;;;24.80;99.90;;;;;;5090591;28;20075;-57
2023/07/21 02:00:10;;;;;;;11.05;5.05;;;24.80;99.90;;;;;;5077160;28;20051;-54
2023/07/21 02:03:24;;;;;;;11.20;6.32;;;24.80;99.90;;;;;;5077546;28;20051;-54
2023/07/21 02:06:29;;;;;;;16.10;5.68;;;24.80;99.90;;;;;;5077807;28;20402;-56
2023/07/21 02:09:33;;;;;;;13.88;5.60;;;24.80;99.90;;;;;;5090130;28;20039;-54
2023/07/21 02:12:36;;;;;;;13.93;6.00;;;24.70;99.90;;;;;;5077594;28;20055;-58
2023/07/21 02:15:47;;;;;;;16.67;6.18;;;24.70;99.90;;;;;;5078282;28;20414;-55
2023/07/21 02:18:53;;;;;;;13.95;6.13;;;24.60;99.90;;;;;;5081061;28;20047;-54
2023/07/21 02:21:58;;;;;;;13.63;6.20;;;24.70;99.90;;;;;;5081718;28;20043;-57
2023/07/21 02:25:04;;;;;;;18.38;5.95;;;24.60;99.90;;;;;;5082096;28;20406;-53
2023/07/21 02:28:08;;;;;;;13.32;5.68;;;24.60;99.90;;;;;;5082058;28;20035;-54
2023/07/21 02:31:11;;;;;;;13.57;6.32;;;24.60;99.90;;;;;;5081336;28;20073;-57
2023/07/21 02:34:15;;;;;;;14.07;6.05;;;24.60;99.90;;;;;;5094344;28;20051;-57
2023/07/21 02:37:20;;;;;;;16.23;7.13;;;24.50;99.90;;;;;;5094415;28;20514;-54
2023/07/21 02:40:24;;;;;;;16.30;6.25;;;24.50;99.90;;;;;;5094039;28;20051;-55
2023/07/21 02:43:28;;;;;;;15.02;5.78;;;24.50;99.90;;;;;;5081087;28;20409;-56
2023/07/21 02:46:31;;;;;;;16.52;6.45;;;24.50;99.90;;;;;;5081466;28;20702;-53
2023/07/21 02:49:36;;;;;;;17.98;6.63;;;24.50;99.90;;;;;;5080724;28;20031;-56
2023/07/21 02:52:42;;;;;;;18.80;6.95;;;24.50;99.90;;;;;;5093639;28;20270;-57
2023/07/21 02:55:47;;;;;;;15.75;7.57;;;24.50;99.90;;;;;;5081228;28;20043;-56
2023/07/21 02:58:53;;;;;;;25.27;6.97;;;24.50;99.90;;;;;;5081551;28;20039;-55
2023/07/21 03:01:58;;;;;;;20.25;6.90;;;24.50;99.90;;;;;;5080945;28;20051;-55
2023/07/21 03:05:09;;;;;;;15.70;6.53;;;24.40;99.90;;;;;;5081137;28;20039;-56
2023/07/21 03:08:14;;;;;;;14.50;7.22;;;24.40;99.90;;;;;;5081171;28;20293;-54
2023/07/21 03:11:20;;;;;;;20.02;7.35;;;24.40;99.90;;;;;;5080200;28;20039;-54
2023/07/21 03:14:48;;;;;;;17.25;6.70;;;24.40;99.90;;;;;;5080879;28;20047;-54
2023/07/21 03:17:52;;;;;;;16.83;6.90;;;24.40;99.90;;;;;;5080869;28;20509;-55
2023/07/21 03:20:59;;;;;;;17.48;6.45;;;24.40;99.90;;;;;;5080479;28;20051;-57
2023/07/21 03:24:07;;;;;;;18.90;6.80;;;24.40;99.90;;;;;;5080446;28;20050;-53
2023/07/21 03:27:12;;;;;;;18.05;7.38;;;24.40;99.90;;;;;;5080417;28;20402;-53
2023/07/21 03:30:18;;;;;;;15.00;6.82;;;24.40;99.90;;;;;;5079160;28;20984;-57
2023/07/21 03:33:29;;;;;;;17.70;6.97;;;24.40;99.90;;;;;;5080392;28;20043;-54
2023/07/21 03:36:46;;;;;;;20.63;7.38;;;24.30;99.90;;;;;;5080449;28;20049;-57
2023/07/21 03:39:50;;;;;;;17.35;7.28;;;24.30;99.90;;;;;;5080294;28;20110;-54
2023/07/21 03:42:54;;;;;;;16.42;7.03;;;24.20;99.90;;;;;;5092538;28;20039;-53
2023/07/21 03:46:02;;;;;;;26.02;7.57;;;24.20;99.90;;;;;;5080338;28;20047;-53
2023/07/21 03:49:11;;;;;;;15.75;6.97;;;24.20;99.90;;;;;;5080216;28;20043;-53
2023/07/21 03:52:18;;;;;;;16.98;6.57;;;24.20;99.90;;;;;;5079789;28;20047;-57
2023/07/21 03:55:23;;;;;;;14.68;6.20;;;24.20;99.90;;;;;;5080170;28;20055;-53
2023/07/21 03:58:27;;;;;;;16.20;7.63;;;24.20;99.90;;;;;;5080156;28;20047;-54
2023/07/21 04:01:31;;;;;;;23.75;8.43;;;23.80;99.90;;;;;;5079366;28;20054;-58
2023/07/21 04:04:35;;;;;;;13.90;7.80;;;23.20;99.90;;;;;;5092134;28;20039;-56
2023/07/21 04:07:39;;;;;;;19.17;8.95;;;23.00;99.90;;;;;;5079627;28;20043;-59
2023/07/21 04:10:43;;;;;;;19.33;8.90;;;22.70;99.90;;;;;;5092003;28;20038;-54
2023/07/21 04:13:47;;;;;;;16.45;9.07;;;22.50;99.90;;;;;;5079769;28;20051;-54
2023/07/21 04:16:51;;;;;;;16.02;8.48;;;22.30;99.90;;;;;;5092232;28;20066;-53
2023/07/21 04:19:57;;;;;;;20.08;8.98;;;22.10;99.90;;;;;;5091863;28;20047;-55
2023/07/21 04:23:02;;;;;;;22.65;9.10;;;22.20;99.90;;;;;;5078890;28;20046;-57
2023/07/21 04:26:06;;;;;;;20.42;8.38;;;22.20;99.90;;;;;;5079389;28;20047;-56
2023/07/21 04:29:10;;;;;;;20.27;9.93;;;22.40;99.90;;;;;;5079150;28;20035;-56
2023/07/21 04:32:17;;;;;;;21.67;8.95;;;22.10;99.90;;;;;;5078451;28;20402;-55
2023/07/21 04:35:21;;;;;;;21.05;10.60;;;21.90;99.90;;;;;;5079241;28;20055;-56
2023/07/21 04:38:25;;;;;;;26.73;12.55;;;21.90;99.90;;;;;;5079110;28;20050;-57
2023/07/21 04:41:35;;;;;;;19.48;11.07;;;22.00;99.90;;;;;;5078571;28;20047;-53
2023/07/21 04:44:40;;;;;;;20.38;10.35;;;22.00;99.90;;;;;;5079099;28;20070;-53
2023/07/21 04:47:44;;;;;;;21.15;9.82;;;22.30;99.90;;;;;;5079160;28;20051;-54
2023/07/21 04:50:57;;;;;;;22.50;11.32;;;23.10;99.90;;;;;;5078516;28;20039;-57
2023/07/21 04:54:01;;;;;;;32.45;15.30;;;24.10;99.90;;;;;;5078903;28;20047;-54
2023/07/21 04:57:05;;;;;;;45.03;23.15;;;24.80;99.90;;;;;;5078969;28;20039;-54
2023/07/21 05:03:12;;;;;;;34.47;18.55;;;25.60;99.90;;;;;;5065288;28;20044;-58
2023/07/21 05:06:17;;;;;;;33.92;14.98;;;26.10;99.90;;;;;;5063307;28;20044;-62
2023/07/21 05:09:22;;;;;;;31.40;14.75;;;26.60;99.90;;;;;;5038441;28;20048;-61
2023/07/21 05:12:27;;;;;;;31.73;14.60;;;27.40;99.90;;;;;;5057568;28;20427;-61
2023/07/21 05:15:44;;;;;;;23.38;11.80;;;28.10;99.90;;;;;;5069761;28;20047;-59
2023/07/21 05:19:03;;;;;;;26.13;14.15;;;27.80;99.90;;;;;;5065243;28;20043;-60
2023/07/21 05:22:34;;;;;;;24.63;13.25;;;28.70;99.90;;;;;;5070431;28;20115;-62
2023/07/21 05:25:40;;;;;;;26.50;14.95;;;29.60;99.90;;;;;;5071084;28;20044;-58
2023/07/21 05:28:46;;;;;;;27.73;13.00;;;30.50;99.90;;;;;;5069981;28;20044;-59
2023/07/21 05:31:52;;;;;;;30.27;12.10;;;30.70;99.90;;;;;;5069230;28;20039;-61
2023/07/21 05:35:00;;;;;;;26.58;10.88;;;31.10;99.90;;;;;;5070563;28;20051;-58
2023/07/21 05:38:04;;;;;;;27.65;10.13;;;31.50;99.90;;;;;;5069617;28;20432;-60
2023/07/21 05:41:08;;;;;;;15.38;8.57;;;31.90;99.90;;;;;;5069575;28;20079;-62
2023/07/21 05:44:14;;;;;;;21.05;9.15;;;32.30;99.20;;;;;;5069339;28;20044;-58
2023/07/21 05:47:19;;;;;;;17.75;8.10;;;31.40;98.70;;;;;;5069509;28;20039;-61
2023/07/21 05:50:27;;;;;;;19.67;9.32;;;31.50;98.50;;;;;;5069377;28;20043;-62
2023/07/21 05:53:31;;;;;;;13.88;7.05;;;31.50;98.30;;;;;;5068557;28;20055;-61
2023/07/21 05:56:39;;;;;;;16.25;7.85;;;31.50;98.10;;;;;;5069363;28;20047;-58
2023/07/21 05:59:50;;;;;;;17.23;8.80;;;32.00;97.30;;;;;;5037852;28;20056;-61
2023/07/21 06:02:54;;;;;;;17.45;7.55;;;31.80;97.50;;;;;;5037238;28;20048;-62
2023/07/21 06:05:58;;;;;;;19.83;7.65;;;32.30;97.00;;;;;;5037900;28;20048;-62
2023/07/21 06:09:30;;;;;;;12.02;7.45;;;32.00;96.30;;;;;;5050243;28;20040;-58
2023/07/21 06:12:44;;;;;;;15.50;6.78;;;31.60;97.20;;;;;;5037527;28;20040;-59
2023/07/21 06:16:10;;;;;;;16.88;7.53;;;31.10;96.80;;;;;;5037837;28;20055;-62
2023/07/21 06:19:19;;;;;;;15.52;7.43;;;30.40;97.50;;;;;;5037626;28;20052;-60
2023/07/21 06:22:23;;;;;;;12.93;7.90;;;31.20;97.60;;;;;;5037217;28;20060;-59
2023/07/21 06:25:27;;;;;;;15.55;7.82;;;31.50;97.40;;;;;;5037866;28;20040;-61
2023/07/21 06:28:38;;;;;;;14.30;7.07;;;31.70;96.70;;;;;;5038626;28;20403;-62
2023/07/21 06:31:42;;;;;;;15.40;7.38;;;31.50;96.50;;;;;;5051677;28;20052;-59
2023/07/21 06:35:07;;;;;;;13.98;7.05;;;32.40;96.30;;;;;;5038893;28;20407;-61
2023/07/21 06:38:31;;;;;;;22.48;6.68;;;32.80;95.60;;;;;;5064551;28;20043;-61
2023/07/21 06:42:10;;;;;;;13.40;6.68;;;33.50;95.30;;;;;;5042542;28;20513;-61
2023/07/21 06:45:29;;;;;;;13.70;6.32;;;33.60;94.60;;;;;;5060205;28;20062;-61
2023/07/21 06:48:42;;;;;;;13.98;6.78;;;33.70;94.50;;;;;;5064133;28;20458;-59
2023/07/21 06:51:50;;;;;;;15.93;6.43;;;33.60;94.50;;;;;;5059766;28;20044;-60
2023/07/21 06:54:55;;;;;;;14.55;6.63;;;33.60;93.30;;;;;;5053424;28;20407;-62
2023/07/21 06:57:59;;;;;;;18.02;6.10;;;34.20;93.60;;;;;;5068895;28;20052;-63
2023/07/21 07:01:03;;;;;;;13.68;6.60;;;34.00;93.10;;;;;;5059964;28;20044;-61
2023/07/21 07:04:07;;;;;;;13.65;5.75;;;33.80;92.70;;;;;;5069054;28;20048;-63
2023/07/21 07:07:12;;;;;;;15.07;6.25;;;33.20;93.30;;;;;;5072232;28;20040;-56
2023/07/21 07:10:16;;;;;;;14.15;7.05;;;33.00;93.00;;;;;;5056851;28;20052;-60
2023/07/21 07:13:20;;;;;;;15.25;7.18;;;33.20;93.70;;;;;;5072543;28;20043;-60
2023/07/21 07:16:24;;;;;;;9.75;5.78;;;32.30;93.90;;;;;;5072832;28;20047;-63
2023/07/21 07:19:28;;;;;;;15.88;6.22;;;33.20;93.80;;;;;;5072665;28;20043;-62
2023/07/21 07:22:32;;;;;;;9.07;5.75;;;32.70;94.20;;;;;;5061214;28;20048;-61
2023/07/21 07:25:36;;;;;;;17.08;6.55;;;33.90;93.30;;;;;;5061800;28;20044;-59
2023/07/21 07:28:41;;;;;;;13.02;5.65;;;34.50;93.00;;;;;;5057655;28;20044;-59
2023/07/21 07:31:45;;;;;;;14.73;5.53;;;33.70;93.70;;;;;;5071835;28;20502;-60
2023/07/21 07:34:53;;;;;;;13.68;6.60;;;33.90;93.00;;;;;;5067102;28;20047;-63
2023/07/21 07:37:57;;;;;;;13.52;5.80;;;33.40;92.90;;;;;;5052706;28;20403;-59
2023/07/21 07:41:08;;;;;;;13.30;5.93;;;34.90;92.30;;;;;;5052280;28;20051;-61
2023/07/21 07:44:12;;;;;;;;;;;34.70;91.80;;;;;;5052495;28;20068;-59
2023/07/21 07:47:16;;;;;;;13.23;5.70;;;34.40;92.10;;;;;;5061193;28;19998;-59
2023/07/21 07:50:20;;;;;;;14.02;5.07;;;33.70;92.00;;;;;;5072144;28;20048;-61
2023/07/21 07:53:24;;;;;;;11.02;4.60;;;35.60;92.20;;;;;;5071711;28;20051;-59
2023/07/21 07:56:28;;;;;;;9.23;4.97;;;36.80;89.50;;;;;;5072061;28;20036;-59
2023/07/21 07:59:32;;;;;;;13.15;5.38;;;37.80;89.00;;;;;;5065243;28;20522;-63
2023/07/21 08:02:36;;;;;;;15.93;5.60;;;37.00;88.50;;;;;;5071734;28;20047;-60
2023/07/21 08:05:41;;;;;;;9.73;5.13;;;35.70;88.30;;;;;;5071983;28;20048;-60
2023/07/21 08:08:46;;;;;;;16.40;5.15;;;35.60;89.70;;;;;;5071985;28;20063;-61
2023/07/21 08:11:50;;;;;;;10.98;4.97;;;37.40;87.80;;;;;;5068479;28;20498;-61
2023/07/21 08:14:56;;;;;;;9.10;5.53;;;38.00;87.40;;;;;;5059835;28;20048;-61
2023/07/21 08:18:00;;;;;;;14.32;5.00;;;39.00;85.30;;;;;;5070181;28;20047;-60
2023/07/21 08:21:21;;;;;;;14.93;4.55;;;38.80;83.60;;;;;;5071438;28;20047;-59
2023/07/21 08:24:25;;;;;;;10.07;4.78;;;38.60;84.40;;;;;;5071169;28;20047;-59
2023/07/21 08:27:29;;;;;;;9.70;4.95;;;39.30;82.40;;;;;;5071471;28;20502;-60
2023/07/21 08:30:35;;;;;;;15.73;5.05;;;39.00;81.70;;;;;;5071765;28;20047;-61
2023/07/21 08:33:39;;;;;;;11.93;4.90;;;37.80;83.90;;;;;;5070952;28;20561;-61
2023/07/21 08:36:43;;;;;;;11.38;4.75;;;39.70;81.00;;;;;;5071523;28;20039;-60
2023/07/21 08:39:47;;;;;;;11.13;5.25;;;39.80;80.30;;;;;;5071581;28;20055;-60
2023/07/21 08:42:51;;;;;;;10.00;4.68;;;40.40;80.20;;;;;;5067387;28;20047;-59
2023/07/21 08:45:59;;;;;;;10.95;5.00;;;40.30;78.90;;;;;;5050807;28;20403;-60
2023/07/21 08:49:05;;;;;;;12.20;4.82;;;39.10;77.90;;;;;;5051266;28;20440;-61
2023/07/21 08:52:09;;;;;;;12.73;4.20;;;39.90;79.20;;;;;;5051309;28;20035;-61
2023/07/21 08:55:13;;;;;;;11.23;4.70;;;38.30;77.70;;;;;;5051482;28;20051;-61
2023/07/21 08:58:17;;;;;;;9.25;4.28;;;39.70;76.60;;;;;;5051467;28;20059;-62
2023/07/21 09:01:21;;;;;;;14.32;4.32;;;39.40;76.70;;;;;;5050895;28;20059;-60
2023/07/21 09:04:25;;;;;;;13.80;4.20;;;38.90;75.00;;;;;;5050758;28;20052;-60
2023/07/21 09:07:30;;;;;;;16.23;4.15;;;40.20;75.50;;;;;;5051250;28;20431;-62
2023/07/21 09:10:34;;;;;;;10.70;4.25;;;41.90;73.80;;;;;;5051340;28;20040;-61
2023/07/21 09:13:38;;;;;;;9.43;3.92;;;43.90;72.00;;;;;;5051134;28;20048;-62
2023/07/21 09:16:43;;;;;;;10.98;4.30;;;44.80;70.50;;;;;;5051089;28;20051;-62
2023/07/21 09:19:48;;;;;;;9.02;4.20;;;44.10;70.00;;;;;;5051001;28;20048;-62
2023/07/21 09:22:52;;;;;;;7.47;4.30;;;43.10;70.30;;;;;;5050794;28;20048;-58
2023/07/21 09:26:02;;;;;;;12.38;4.68;;;42.50;73.30;;;;;;5050453;28;20155;-63
2023/07/21 09:29:17;;;;;;;11.85;5.07;;;43.30;72.00;;;;;;5050880;28;20052;-61
2023/07/21 09:32:21;;;;;;;8.07;4.07;;;44.50;71.10;;;;;;5050207;28;20048;-61
2023/07/21 09:35:28;;;;;;;9.63;3.97;;;44.80;71.20;;;;;;5050441;28;20511;-63
2023/07/21 09:38:37;;;;;;;12.93;4.68;;;44.10;70.70;;;;;;5050153;28;20040;-62
2023/07/21 09:41:42;;;;;;;11.82;4.85;;;40.20;71.50;;;;;;5062210;28;20270;-57
2023/07/21 09:44:48;;;;;;;12.00;5.05;;;40.00;75.50;;;;;;5065655;28;20529;-59
2023/07/21 09:47:55;;;;;;;15.98;4.93;;;39.30;74.00;;;;;;5068998;28;20040;-61
2023/07/21 09:51:04;;;;;;;12.43;5.18;;;39.00;76.80;;;;;;5066154;28;20038;-61
2023/07/21 09:54:12;;;;;;;9.73;4.60;;;40.40;75.50;;;;;;5069684;28;20403;-59
2023/07/21 09:57:19;;;;;;;7.47;4.53;;;39.70;74.50;;;;;;5066763;28;20040;-60
2023/07/21 10:00:28;;;;;;;15.82;4.82;;;41.00;74.60;;;;;;5068758;28;20063;-61
2023/07/21 10:03:34;;;;;;;20.42;5.28;;;39.70;76.50;;;;;;5064090;28;20047;-59
2023/07/21 10:06:38;;;;;;;11.75;4.95;;;41.00;75.00;;;;;;5064433;28;20039;-60
2023/07/21 10:09:47;;;;;;;11.48;5.45;;;42.10;74.40;;;;;;5057472;28;20036;-60
2023/07/21 10:12:52;;;;;;;9.48;4.70;;;41.80;73.70;;;;;;5068069;28;20059;-61
2023/07/21 10:16:09;;;;;;;9.27;4.93;;;41.50;73.40;;;;;;5067665;28;20040;-59
2023/07/21 10:19:14;;;;;;;12.70;5.45;;;42.30;72.60;;;;;;5066285;28;20402;-62
2023/07/21 10:22:25;;;;;;;12.43;5.38;;;41.70;73.20;;;;;;5068375;28;20047;-62
2023/07/21 10:25:44;;;;;;;11.55;5.10;;;39.80;75.70;;;;;;5066519;28;20040;-59
2023/07/21 10:28:51;;;;;;;15.68;5.07;;;41.70;74.70;;;;;;5066637;28;20047;-56
2023/07/21 10:31:57;;;;;;;15.80;5.30;;;40.70;76.20;;;;;;5067097;28;20590;-59
2023/07/21 10:35:02;;;;;;;12.18;5.35;;;42.00;73.90;;;;;;5066096;28;20041;-62
2023/07/21 10:38:13;;;;;;;23.33;6.20;;;43.10;74.00;;;;;;5067446;28;20047;-58
2023/07/21 10:41:18;;;;;;;;;;;41.30;75.40;;;;;;5072860;28;20082;-63
2023/07/21 10:44:22;;;;;;;14.70;5.32;;;41.30;75.30;;;;;;5070662;28;19912;-62
2023/07/21 10:47:26;;;;;;;15.80;5.40;;;41.70;74.40;;;;;;5070177;28;20059;-61
2023/07/21 10:50:30;;;;;;;14.27;4.90;;;42.00;74.70;;;;;;5050913;28;20044;-62
2023/07/21 10:53:34;;;;;;;21.15;5.75;;;43.10;73.90;;;;;;5062329;28;20055;-61
2023/07/21 10:56:40;;;;;;;17.73;5.90;;;42.20;75.30;;;;;;5063736;28;20047;-60
2023/07/21 10:59:44;;;;;;;14.30;5.93;;;40.50;76.80;;;;;;5082142;22;20510;-51
2023/07/21 11:02:54;;;;;;;15.68;6.65;;;38.70;79.40;;;;;;5049526;28;20112;-56
2023/07/21 11:05:58;;;;;;;15.85;5.97;;;37.30;81.80;;;;;;5051187;28;20044;-53
2023/07/21 11:09:02;;;;;;;11.38;5.80;;;39.10;81.00;;;;;;5049374;28;20032;-52
2023/07/21 11:12:06;;;;;;;19.33;6.20;;;39.40;77.60;;;;;;5030416;28;20507;-55
2023/07/21 11:15:11;;;;;;;13.55;5.88;;;41.30;77.50;;;;;;5025721;28;20060;-54
2023/07/21 11:18:15;;;;;;;20.45;6.70;;;42.00;76.60;;;;;;5029974;28;20052;-56
2023/07/21 11:21:20;;;;;;;18.75;6.53;;;41.70;76.50;;;;;;5030014;28;20407;-57
2023/07/21 11:24:25;;;;;;;14.02;5.68;;;42.60;77.10;;;;;;5023636;28;20044;-55
2023/07/21 11:27:29;;;;;;;23.75;6.93;;;40.60;79.00;;;;;;5007995;28;20044;-54
2023/07/21 11:30:34;;;;;;;20.58;6.38;;;42.20;78.50;;;;;;5020286;28;20065;-56
2023/07/21 11:33:48;;;;;;;17.25;6.38;;;41.70;79.00;;;;;;5018976;28;20049;-56
2023/07/21 11:36:58;;;;;;;16.00;6.28;;;40.90;80.00;;;;;;5029385;28;20052;-54
2023/07/21 11:40:10;;;;;;;;;;;39.80;81.20;;;;;;5027647;28;20052;-52
2023/07/21 11:43:14;;;;;;;21.23;6.28;;;39.80;83.70;;;;;;5027818;28;19931;-57
2023/07/21 11:46:25;;;;;;;16.25;6.50;;;39.20;84.30;;;;;;5029105;28;20052;-57
2023/07/21 11:49:29;;;;;;;18.75;5.97;;;40.60;81.70;;;;;;5023397;28;20045;-51
2023/07/21 11:52:36;;;;;;;19.00;6.50;;;40.40;81.60;;;;;;5021569;28;20049;-52
2023/07/21 11:55:40;;;;;;;17.42;6.30;;;40.00;81.50;;;;;;5020316;28;20136;-53
2023/07/21 11:58:44;;;;;;;18.15;6.95;;;39.30;83.00;;;;;;5019644;28;20088;-54
2023/07/21 12:01:49;;;;;;;20.02;6.40;;;37.70;83.70;;;;;;5018783;28;20052;-53
2023/07/21 12:04:53;;;;;;;20.27;6.70;;;38.10;85.30;;;;;;5027032;28;20041;-56
2023/07/21 12:07:59;;;;;;;26.60;6.78;;;37.70;85.30;;;;;;5013314;28;20037;-52
2023/07/21 12:11:03;;;;;;;18.52;6.70;;;37.50;84.60;;;;;;5019665;28;20045;-52
2023/07/21 12:14:07;;;;;;;22.77;7.40;;;38.00;86.60;;;;;;5026648;28;20645;-50
2023/07/21 12:17:14;;;;;;;29.17;7.22;;;38.50;85.30;;;;;;5018830;28;20052;-55
2023/07/21 12:20:18;;;;;;;21.20;6.75;;;39.20;84.20;;;;;;5011094;28;20045;-56
2023/07/21 12:23:22;;;;;;;19.13;7.40;;;38.70;84.10;;;;;;5010453;28;20045;-50
2023/07/21 12:26:26;;;;;;;23.13;6.07;;;40.10;82.10;;;;;;5018275;28;20039;-52
2023/07/21 12:29:30;;;;;;;19.48;7.18;;;41.00;80.60;;;;;;5018923;28;20056;-53
2023/07/21 12:32:35;;;;;;;22.95;7.22;;;41.10;81.50;;;;;;5012369;28;20044;-52
2023/07/21 12:35:40;;;;;;;26.00;7.90;;;40.10;79.80;;;;;;5015698;28;20049;-56
2023/07/21 12:38:46;;;;;;;19.15;6.43;;;39.40;81.60;;;;;;5025568;28;20184;-51
2023/07/21 12:41:50;;;;;;;18.63;7.28;;;38.70;83.20;;;;;;5012607;28;20519;-53
2023/07/21 12:44:55;;;;;;;18.67;7.20;;;38.30;84.40;;;;;;5013567;28;20045;-52
2023/07/21 12:47:58;;;;;;;25.50;7.00;;;38.30;84.70;;;;;;5020869;28;20067;-55
2023/07/21 12:51:03;;;;;;;18.90;7.57;;;38.60;84.40;;;;;;5019092;28;20040;-56
2023/07/21 12:54:06;;;;;;;21.60;7.10;;;39.40;84.00;;;;;;5028654;28;20048;-50
2023/07/21 12:57:10;;;;;;;21.77;6.35;;;40.50;82.40;;;;;;5010582;28;20052;-53
2023/07/21 13:00:16;;;;;;;22.00;6.72;;;41.60;82.00;;;;;;5011030;28;20057;-56
2023/07/21 13:03:20;;;;;;;28.63;7.35;;;42.30;80.50;;;;;;5028552;28;20511;-55
2023/07/21 13:06:24;;;;;;;20.05;6.50;;;42.30;80.40;;;;;;5028341;28;20045;-56
2023/07/21 13:09:28;;;;;;;21.45;6.43;;;41.90;79.30;;;;;;5030069;28;20044;-53
2023/07/21 13:12:32;;;;;;;22.25;6.55;;;41.80;80.00;;;;;;5027884;28;20048;-50
2023/07/21 13:15:36;;;;;;;22.95;6.60;;;41.60;78.40;;;;;;5027991;28;20412;-53
2023/07/21 13:18:40;;;;;;;28.02;6.70;;;40.70;79.60;;;;;;5014469;28;20044;-51
2023/07/21 13:21:44;;;;;;;23.52;6.82;;;39.30;80.90;;;;;;5019347;28;20515;-51
2023/07/21 13:24:48;;;;;;;25.00;6.90;;;38.20;80.60;;;;;;5024618;28;20057;-54
2023/07/21 13:27:52;;;;;;;23.85;7.05;;;38.40;80.10;;;;;;5021588;28;20045;-51
2023/07/21 13:30:56;;;;;;;24.80;7.07;;;38.90;79.60;;;;;;5020941;28;20420;-53
2023/07/21 13:34:02;;;;;;;18.08;6.75;;;39.40;79.80;;;;;;5020050;28;20041;-54
2023/07/21 13:37:06;;;;;;;18.00;5.97;;;39.40;80.00;;;;;;5010994;28;20512;-52
2023/07/21 13:40:10;;;;;;;21.65;6.10;;;39.20;79.60;;;;;;5009674;28;20053;-54
2023/07/21 13:43:14;;;;;;;18.20;6.18;;;38.70;79.80;;;;;;5015328;28;20044;-50
2023/07/21 13:46:21;;;;;;;15.23;5.60;;;38.60;79.70;;;;;;5027490;28;20044;-51
2023/07/21 13:49:26;;;;;;;15.50;6.63;;;39.00;79.50;;;;;;5029438;28;20040;-54
2023/07/21 13:52:30;;;;;;;15.25;5.93;;;39.70;80.50;;;;;;5029547;28;20041;-56
2023/07/21 13:55:34;;;;;;;18.25;6.47;;;40.10;80.00;;;;;;5028428;28;20037;-56
2023/07/21 13:58:39;;;;;;;15.75;6.45;;;40.20;79.40;;;;;;5011229;28;20358;-53
2023/07/21 14:01:43;;;;;;;16.33;5.50;;;40.40;77.90;;;;;;5009243;28;20053;-53
2023/07/21 14:04:47;;;;;;;17.73;6.10;;;40.50;78.10;;;;;;5009214;28;20419;-56
2023/07/21 14:07:51;;;;;;;22.52;6.00;;;40.40;78.20;;;;;;5012831;28;20045;-55
2023/07/21 14:10:56;;;;;;;18.13;5.82;;;40.20;78.30;;;;;;5017737;28;20056;-56
2023/07/21 14:14:01;;;;;;;15.10;5.65;;;40.20;78.40;;;;;;5011434;28;20412;-50
2023/07/21 14:17:05;;;;;;;21.02;6.28;;;38.90;79.20;;;;;;5026399;28;20040;-50
2023/07/21 14:20:09;;;;;;;16.35;6.53;;;39.00;80.50;;;;;;5021303;28;20044;-50
2023/07/21 14:23:14;;;;;;;18.80;5.75;;;39.40;80.80;;;;;;5031618;28;20051;-53
2023/07/21 14:26:19;;;;;;;17.77;6.97;;;38.00;80.60;;;;;;5022779;28;20056;-53
2023/07/21 14:29:22;;;;;;;20.67;7.03;;;36.90;83.00;;;;;;5030880;28;20045;-51
2023/07/21 14:32:27;;;;;;;18.02;6.43;;;36.50;83.40;;;;;;5015247;28;20049;-54
2023/07/21 14:35:31;;;;;;;23.90;6.35;;;37.10;82.80;;;;;;5013257;28;20049;-52
2023/07/21 14:38:36;;;;;;;17.88;6.15;;;37.70;83.00;;;;;;5017177;28;20049;-54
2023/07/21 14:41:39;;;;;;;22.77;6.85;;;38.00;83.00;;;;;;5014587;28;20057;-55
2023/07/21 14:44:43;;;;;;;18.92;6.00;;;38.30;83.10;;;;;;5032306;28;20048;-53
2023/07/21 14:47:47;;;;;;;18.38;5.80;;;38.30;82.70;;;;;;5032421;28;20040;-51
2023/07/21 14:50:51;;;;;;;15.73;6.38;;;38.20;81.70;;;;;;5032604;28;20531;-56
2023/07/21 14:53:56;;;;;;;17.08;5.88;;;38.20;82.50;;;;;;5027414;28;20036;-54
2023/07/21 14:56:59;;;;;;;24.02;6.32;;;38.20;82.20;;;;;;5015055;28;20036;-54
2023/07/21 15:00:12;;;;;;;18.42;5.93;;;38.20;83.30;;;;;;5011974;28;20061;-55
2023/07/21 15:03:18;;;;;;;18.23;6.13;;;37.80;82.20;;;;;;5013526;28;20045;-51
2023/07/21 15:06:22;;;;;;;14.38;6.07;;;37.90;83.10;;;;;;5022923;28;20045;-51
2023/07/21 15:09:26;;;;;;;25.80;6.35;;;37.70;83.80;;;;;;5011909;28;20041;-55
2023/07/21 15:12:32;;;;;;;19.67;6.50;;;37.60;84.00;;;;;;5029926;28;20044;-56
2023/07/21 15:15:35;;;;;;;15.88;6.00;;;37.30;83.50;;;;;;5031966;28;20052;-53
2023/07/21 15:18:39;;;;;;;16.60;6.30;;;36.90;83.30;;;;;;5014428;28;20060;-56
2023/07/21 15:21:44;;;;;;;21.70;6.97;;;36.80;84.70;;;;;;5012000;28;20049;-52
2023/07/21 15:24:48;;;;;;;16.90;6.30;;;36.70;84.80;;;;;;5011011;28;20045;-55
2023/07/21 15:27:52;;;;;;;19.00;6.30;;;36.60;85.50;;;;;;5012131;28;20045;-57
2023/07/21 15:31:04;;;;;;;24.10;6.55;;;36.40;84.80;;;;;;5011762;28;20044;-54
2023/07/21 15:34:08;;;;;;;18.80;5.95;;;36.40;85.00;;;;;;5012169;28;20053;-55
2023/07/21 15:37:12;;;;;;;21.35;6.55;;;36.40;86.00;;;;;;5011985;28;20072;-55
2023/07/21 15:40:18;;;;;;;20.92;6.20;;;36.40;85.70;;;;;;5011399;28;20028;-53
2023/07/21 15:43:22;;;;;;;17.40;6.22;;;36.10;87.00;;;;;;5011631;28;20053;-56
2023/07/21 15:46:27;;;;;;;15.68;6.25;;;36.10;86.90;;;;;;5011891;28;20049;-51
2023/07/21 15:49:31;;;;;;;18.50;6.70;;;36.10;87.40;;;;;;5011226;28;20041;-52
2023/07/21 15:52:35;;;;;;;14.38;6.20;;;36.10;86.40;;;;;;5011364;28;20048;-53
2023/07/21 15:55:39;;;;;;;15.52;6.40;;;36.00;86.40;;;;;;5011534;28;20064;-56
2023/07/21 15:58:43;;;;;;;18.13;6.78;;;35.90;86.90;;;;;;5011571;28;20053;-57
2023/07/21 16:01:48;;;;;;;17.95;6.60;;;35.80;87.40;;;;;;5011287;28;20324;-55